sensor_id;sensor_type;location;lat;lon;timestamp;P1;durP1;ratioP1;P2;durP2;ratioP2
11496;SDS011;5805;51.542;7.230;2022-07-23T00:01:52;9.63;;;4.80;;
11496;SDS011;5805;51.542;7.230;2022-07-23T00:04:18;5.38;;;4.50;;
11496;SDS011;5805;51.542;7.230;2022-07-23T00:06:43;6.28;;;4.68;;
11496;SDS011;5805;51.542;7.230;2022-07-23T00:09:10;4.63;;;4.15;;
11496;SDS011;5805;51.542;7.230;2022-07-23T00:11:36;6.97;;;4.70;;
11496;SDS011;5805;51.542;7.230;2022-07-23T00:14:02;9.70;;;4.93;;
11496;SDS011;5805;51.542;7.230;2022-07-23T00:16:27;8.00;;;4.38;;
11496;SDS011;5805;51.542;7.230;2022-07-23T00:18:53;6.88;;;5.00;;
11496;SDS011;5805;51.542;7.230;2022-07-23T00:21:19;5.18;;;4.10;;
11496;SDS011;5805;51.542;7.230;2022-07-23T00:23:45;7.22;;;4.72;;
11496;SDS011;5805;51.542;7.230;2022-07-23T00:26:12;11.98;;;4.95;;
11496;SDS011;5805;51.542;7.230;2022-07-23T00:28:37;8.93;;;4.82;;
11496;SDS011;5805;51.542;7.230;2022-07-23T00:31:03;6.75;;;5.03;;
11496;SDS011;5805;51.542;7.230;2022-07-23T00:33:29;6.00;;;4.88;;
11496;SDS011;5805;51.542;7.230;2022-07-23T00:35:54;5.07;;;4.57;;
11496;SDS011;5805;51.542;7.230;2022-07-23T00:38:20;5.47;;;4.78;;
11496;SDS011;5805;51.542;7.230;2022-07-23T00:40:46;12.30;;;5.40;;
11496;SDS011;5805;51.542;7.230;2022-07-23T00:43:13;7.32;;;4.88;;
11496;SDS011;5805;51.542;7.230;2022-07-23T00:45:39;7.00;;;4.40;;
11496;SDS011;5805;51.542;7.230;2022-07-23T00:48:04;8.55;;;4.80;;
11496;SDS011;5805;51.542;7.230;2022-07-23T00:50:30;6.68;;;4.88;;
11496;SDS011;5805;51.542;7.230;2022-07-23T00:52:56;6.57;;;4.82;;
11496;SDS011;5805;51.542;7.230;2022-07-23T00:55:22;7.35;;;5.15;;
11496;SDS011;5805;51.542;7.230;2022-07-23T00:57:48;6.93;;;5.13;;
11496;SDS011;5805;51.542;7.230;2022-07-23T01:00:16;7.53;;;4.95;;
11496;SDS011;5805;51.542;7.230;2022-07-23T01:02:42;5.43;;;4.93;;
11496;SDS011;5805;51.542;7.230;2022-07-23T01:05:08;7.30;;;4.70;;
11496;SDS011;5805;51.542;7.230;2022-07-23T01:07:34;10.80;;;5.30;;
11496;SDS011;5805;51.542;7.230;2022-07-23T01:10:00;8.07;;;5.43;;
11496;SDS011;5805;51.542;7.230;2022-07-23T01:12:28;5.25;;;4.75;;
11496;SDS011;5805;51.542;7.230;2022-07-23T01:14:53;5.30;;;4.78;;
11496;SDS011;5805;51.542;7.230;2022-07-23T01:17:21;8.35;;;5.43;;
11496;SDS011;5805;51.542;7.230;2022-07-23T01:19:46;8.40;;;5.53;;
11496;SDS011;5805;51.542;7.230;2022-07-23T01:22:12;8.50;;;5.30;;
11496;SDS011;5805;51.542;7.230;2022-07-23T01:24:43;7.57;;;5.30;;
11496;SDS011;5805;51.542;7.230;2022-07-23T01:27:09;8.52;;;5.40;;
11496;SDS011;5805;51.542;7.230;2022-07-23T01:29:34;7.47;;;5.32;;
11496;SDS011;5805;51.542;7.230;2022-07-23T01:32:00;9.50;;;5.50;;
11496;SDS011;5805;51.542;7.230;2022-07-23T01:34:26;9.68;;;5.22;;
11496;SDS011;5805;51.542;7.230;2022-07-23T01:36:51;8.20;;;5.20;;
11496;SDS011;5805;51.542;7.230;2022-07-23T01:39:17;7.38;;;5.65;;
11496;SDS011;5805;51.542;7.230;2022-07-23T01:41:44;9.90;;;5.30;;
11496;SDS011;5805;51.542;7.230;2022-07-23T01:44:10;6.63;;;5.30;;
11496;SDS011;5805;51.542;7.230;2022-07-23T01:46:35;6.93;;;5.78;;
11496;SDS011;5805;51.542;7.230;2022-07-23T01:49:02;8.50;;;5.80;;
11496;SDS011;5805;51.542;7.230;2022-07-23T01:51:28;6.95;;;5.47;;
11496;SDS011;5805;51.542;7.230;2022-07-23T01:53:54;9.18;;;5.72;;
11496;SDS011;5805;51.542;7.230;2022-07-23T01:56:20;8.65;;;5.57;;
11496;SDS011;5805;51.542;7.230;2022-07-23T01:58:47;6.25;;;5.47;;
11496;SDS011;5805;51.542;7.230;2022-07-23T02:01:12;7.32;;;5.70;;
11496;SDS011;5805;51.542;7.230;2022-07-23T02:03:38;5.47;;;4.97;;
11496;SDS011;5805;51.542;7.230;2022-07-23T02:06:04;9.38;;;5.60;;
11496;SDS011;5805;51.542;7.230;2022-07-23T02:08:29;8.20;;;5.35;;
11496;SDS011;5805;51.542;7.230;2022-07-23T02:10:55;9.10;;;6.30;;
11496;SDS011;5805;51.542;7.230;2022-07-23T02:13:21;8.10;;;6.10;;
11496;SDS011;5805;51.542;7.230;2022-07-23T02:15:48;6.13;;;5.53;;
11496;SDS011;5805;51.542;7.230;2022-07-23T02:18:14;10.18;;;5.70;;
11496;SDS011;5805;51.542;7.230;2022-07-23T02:20:39;9.57;;;5.90;;
11496;SDS011;5805;51.542;7.230;2022-07-23T02:23:05;8.05;;;6.50;;
11496;SDS011;5805;51.542;7.230;2022-07-23T02:25:31;8.68;;;6.72;;
11496;SDS011;5805;51.542;7.230;2022-07-23T02:27:57;7.57;;;6.45;;
11496;SDS011;5805;51.542;7.230;2022-07-23T02:30:23;10.80;;;6.55;;
11496;SDS011;5805;51.542;7.230;2022-07-23T02:32:50;8.35;;;6.70;;
11496;SDS011;5805;51.542;7.230;2022-07-23T02:35:15;15.02;;;6.88;;
11496;SDS011;5805;51.542;7.230;2022-07-23T02:37:41;6.85;;;6.10;;
11496;SDS011;5805;51.542;7.230;2022-07-23T02:40:07;10.10;;;6.18;;
11496;SDS011;5805;51.542;7.230;2022-07-23T02:42:33;8.23;;;6.53;;
11496;SDS011;5805;51.542;7.230;2022-07-23T02:44:59;8.25;;;6.70;;
11496;SDS011;5805;51.542;7.230;2022-07-23T02:47:24;7.47;;;6.18;;
11496;SDS011;5805;51.542;7.230;2022-07-23T02:49:51;7.07;;;6.45;;
11496;SDS011;5805;51.542;7.230;2022-07-23T02:52:17;7.40;;;6.35;;
11496;SDS011;5805;51.542;7.230;2022-07-23T02:54:43;12.45;;;6.95;;
11496;SDS011;5805;51.542;7.230;2022-07-23T02:57:08;10.95;;;6.50;;
11496;SDS011;5805;51.542;7.230;2022-07-23T02:59:34;9.45;;;7.05;;
11496;SDS011;5805;51.542;7.230;2022-07-23T03:02:00;6.95;;;6.25;;
11496;SDS011;5805;51.542;7.230;2022-07-23T03:04:26;10.45;;;6.93;;
11496;SDS011;5805;51.542;7.230;2022-07-23T03:06:53;9.52;;;6.93;;
11496;SDS011;5805;51.542;7.230;2022-07-23T03:09:18;9.25;;;6.28;;
11496;SDS011;5805;51.542;7.230;2022-07-23T03:11:44;8.93;;;6.30;;
11496;SDS011;5805;51.542;7.230;2022-07-23T03:14:10;8.55;;;6.35;;
11496;SDS011;5805;51.542;7.230;2022-07-23T03:16:35;8.13;;;6.32;;
11496;SDS011;5805;51.542;7.230;2022-07-23T03:19:01;9.00;;;6.55;;
11496;SDS011;5805;51.542;7.230;2022-07-23T03:21:27;10.38;;;7.30;;
11496;SDS011;5805;51.542;7.230;2022-07-23T03:23:54;10.52;;;7.20;;
11496;SDS011;5805;51.542;7.230;2022-07-23T03:26:19;9.15;;;7.00;;
11496;SDS011;5805;51.542;7.230;2022-07-23T03:28:45;16.77;;;7.32;;
11496;SDS011;5805;51.542;7.230;2022-07-23T03:31:11;7.47;;;6.78;;
11496;SDS011;5805;51.542;7.230;2022-07-23T03:33:36;8.70;;;7.25;;
11496;SDS011;5805;51.542;7.230;2022-07-23T03:36:02;7.28;;;6.38;;
11496;SDS011;5805;51.542;7.230;2022-07-23T03:38:28;9.77;;;7.07;;
11496;SDS011;5805;51.542;7.230;2022-07-23T03:40:55;7.50;;;6.80;;
11496;SDS011;5805;51.542;7.230;2022-07-23T03:43:21;8.95;;;7.13;;
11496;SDS011;5805;51.542;7.230;2022-07-23T03:45:46;7.82;;;7.05;;
11496;SDS011;5805;51.542;7.230;2022-07-23T03:48:12;7.32;;;6.65;;
11496;SDS011;5805;51.542;7.230;2022-07-23T03:50:38;9.68;;;7.03;;
11496;SDS011;5805;51.542;7.230;2022-07-23T03:53:04;15.23;;;7.38;;
11496;SDS011;5805;51.542;7.230;2022-07-23T03:55:30;8.73;;;7.82;;
11496;SDS011;5805;51.542;7.230;2022-07-23T03:57:57;9.80;;;7.18;;
11496;SDS011;5805;51.542;7.230;2022-07-23T04:00:23;9.27;;;7.20;;
11496;SDS011;5805;51.542;7.230;2022-07-23T04:02:48;9.43;;;7.60;;
11496;SDS011;5805;51.542;7.230;2022-07-23T04:05:14;10.10;;;7.45;;
11496;SDS011;5805;51.542;7.230;2022-07-23T04:07:40;8.00;;;7.13;;
11496;SDS011;5805;51.542;7.230;2022-07-23T04:10:06;8.80;;;7.50;;
11496;SDS011;5805;51.542;7.230;2022-07-23T04:12:33;8.57;;;7.13;;
11496;SDS011;5805;51.542;7.230;2022-07-23T04:15:00;10.27;;;7.10;;
11496;SDS011;5805;51.542;7.230;2022-07-23T04:17:26;9.23;;;7.65;;
11496;SDS011;5805;51.542;7.230;2022-07-23T04:19:51;8.43;;;6.85;;
11496;SDS011;5805;51.542;7.230;2022-07-23T04:22:17;8.63;;;6.95;;
11496;SDS011;5805;51.542;7.230;2022-07-23T04:24:43;8.63;;;7.38;;
11496;SDS011;5805;51.542;7.230;2022-07-23T04:27:08;10.35;;;7.47;;
11496;SDS011;5805;51.542;7.230;2022-07-23T04:29:34;7.70;;;7.03;;
11496;SDS011;5805;51.542;7.230;2022-07-23T04:32:01;11.32;;;7.65;;
11496;SDS011;5805;51.542;7.230;2022-07-23T04:34:27;10.18;;;7.03;;
11496;SDS011;5805;51.542;7.230;2022-07-23T04:36:52;9.00;;;7.40;;
11496;SDS011;5805;51.542;7.230;2022-07-23T04:39:18;10.90;;;7.40;;
11496;SDS011;5805;51.542;7.230;2022-07-23T04:41:44;8.48;;;7.43;;
11496;SDS011;5805;51.542;7.230;2022-07-23T04:44:10;10.15;;;8.13;;
11496;SDS011;5805;51.542;7.230;2022-07-23T04:46:35;12.00;;;8.40;;
11496;SDS011;5805;51.542;7.230;2022-07-23T04:49:02;10.43;;;7.32;;
11496;SDS011;5805;51.542;7.230;2022-07-23T04:51:28;10.32;;;7.90;;
11496;SDS011;5805;51.542;7.230;2022-07-23T04:53:54;9.85;;;7.72;;
11496;SDS011;5805;51.542;7.230;2022-07-23T04:56:20;11.20;;;7.30;;
11496;SDS011;5805;51.542;7.230;2022-07-23T04:58:45;9.00;;;7.57;;
11496;SDS011;5805;51.542;7.230;2022-07-23T05:01:11;11.18;;;7.32;;
11496;SDS011;5805;51.542;7.230;2022-07-23T05:03:37;10.50;;;7.57;;
11496;SDS011;5805;51.542;7.230;2022-07-23T05:06:04;8.68;;;6.97;;
11496;SDS011;5805;51.542;7.230;2022-07-23T05:08:29;8.35;;;7.22;;
11496;SDS011;5805;51.542;7.230;2022-07-23T05:10:55;10.23;;;7.32;;
11496;SDS011;5805;51.542;7.230;2022-07-23T05:13:21;9.32;;;7.03;;
11496;SDS011;5805;51.542;7.230;2022-07-23T05:15:47;7.88;;;6.97;;
11496;SDS011;5805;51.542;7.230;2022-07-23T05:18:13;9.07;;;7.85;;
11496;SDS011;5805;51.542;7.230;2022-07-23T05:20:38;8.75;;;7.60;;
11496;SDS011;5805;51.542;7.230;2022-07-23T05:23:06;8.52;;;7.72;;
11496;SDS011;5805;51.542;7.230;2022-07-23T05:25:32;8.95;;;7.63;;
11496;SDS011;5805;51.542;7.230;2022-07-23T05:27:57;9.98;;;7.60;;
11496;SDS011;5805;51.542;7.230;2022-07-23T05:30:23;9.23;;;7.68;;
11496;SDS011;5805;51.542;7.230;2022-07-23T05:32:49;9.43;;;8.20;;
11496;SDS011;5805;51.542;7.230;2022-07-23T05:35:14;11.10;;;7.15;;
11496;SDS011;5805;51.542;7.230;2022-07-23T05:37:40;8.55;;;7.72;;
11496;SDS011;5805;51.542;7.230;2022-07-23T05:40:08;9.25;;;7.75;;
11496;SDS011;5805;51.542;7.230;2022-07-23T05:42:35;8.18;;;7.22;;
11496;SDS011;5805;51.542;7.230;2022-07-23T05:45:02;10.75;;;7.63;;
11496;SDS011;5805;51.542;7.230;2022-07-23T05:47:32;9.65;;;7.90;;
11496;SDS011;5805;51.542;7.230;2022-07-23T05:50:05;7.95;;;7.15;;
11496;SDS011;5805;51.542;7.230;2022-07-23T05:52:31;10.00;;;7.90;;
11496;SDS011;5805;51.542;7.230;2022-07-23T05:54:56;8.07;;;7.07;;
11496;SDS011;5805;51.542;7.230;2022-07-23T05:57:23;10.52;;;7.60;;
11496;SDS011;5805;51.542;7.230;2022-07-23T05:59:49;9.55;;;8.50;;
11496;SDS011;5805;51.542;7.230;2022-07-23T06:02:15;8.52;;;7.72;;
11496;SDS011;5805;51.542;7.230;2022-07-23T06:04:40;8.65;;;7.68;;
11496;SDS011;5805;51.542;7.230;2022-07-23T06:07:06;12.05;;;8.30;;
11496;SDS011;5805;51.542;7.230;2022-07-23T06:09:32;9.93;;;7.97;;
11496;SDS011;5805;51.542;7.230;2022-07-23T06:11:57;12.07;;;8.77;;
11496;SDS011;5805;51.542;7.230;2022-07-23T06:14:24;13.98;;;8.55;;
11496;SDS011;5805;51.542;7.230;2022-07-23T06:16:50;13.23;;;9.10;;
11496;SDS011;5805;51.542;7.230;2022-07-23T06:19:16;9.30;;;8.35;;
11496;SDS011;5805;51.542;7.230;2022-07-23T06:21:42;9.98;;;8.98;;
11496;SDS011;5805;51.542;7.230;2022-07-23T06:24:08;9.68;;;8.68;;
11496;SDS011;5805;51.542;7.230;2022-07-23T06:26:34;9.07;;;8.18;;
11496;SDS011;5805;51.542;7.230;2022-07-23T06:28:59;15.13;;;9.10;;
11496;SDS011;5805;51.542;7.230;2022-07-23T06:31:26;10.10;;;8.40;;
11496;SDS011;5805;51.542;7.230;2022-07-23T06:33:52;10.27;;;8.70;;
11496;SDS011;5805;51.542;7.230;2022-07-23T06:36:18;11.70;;;8.73;;
11496;SDS011;5805;51.542;7.230;2022-07-23T06:38:43;11.73;;;10.50;;
11496;SDS011;5805;51.542;7.230;2022-07-23T06:41:09;12.40;;;9.30;;
11496;SDS011;5805;51.542;7.230;2022-07-23T06:43:35;12.32;;;11.02;;
11496;SDS011;5805;51.542;7.230;2022-07-23T06:46:00;13.38;;;10.88;;
11496;SDS011;5805;51.542;7.230;2022-07-23T06:48:27;13.85;;;11.23;;
11496;SDS011;5805;51.542;7.230;2022-07-23T06:50:53;13.75;;;11.90;;
11496;SDS011;5805;51.542;7.230;2022-07-23T06:53:19;11.77;;;10.18;;
11496;SDS011;5805;51.542;7.230;2022-07-23T06:55:44;13.48;;;10.65;;
11496;SDS011;5805;51.542;7.230;2022-07-23T06:58:10;12.98;;;9.63;;
11496;SDS011;5805;51.542;7.230;2022-07-23T07:00:36;12.07;;;9.00;;
11496;SDS011;5805;51.542;7.230;2022-07-23T07:03:01;13.32;;;9.73;;
11496;SDS011;5805;51.542;7.230;2022-07-23T07:05:28;9.25;;;8.35;;
11496;SDS011;5805;51.542;7.230;2022-07-23T07:07:54;12.57;;;8.95;;
11496;SDS011;5805;51.542;7.230;2022-07-23T07:10:20;12.63;;;8.90;;
11496;SDS011;5805;51.542;7.230;2022-07-23T07:12:46;9.88;;;8.85;;
11496;SDS011;5805;51.542;7.230;2022-07-23T07:15:11;10.90;;;9.55;;
11496;SDS011;5805;51.542;7.230;2022-07-23T07:17:37;10.75;;;9.02;;
11496;SDS011;5805;51.542;7.230;2022-07-23T07:20:03;13.68;;;9.40;;
11496;SDS011;5805;51.542;7.230;2022-07-23T07:22:31;12.93;;;8.95;;
11496;SDS011;5805;51.542;7.230;2022-07-23T07:24:57;12.02;;;9.65;;
11496;SDS011;5805;51.542;7.230;2022-07-23T07:27:22;15.95;;;8.82;;
11496;SDS011;5805;51.542;7.230;2022-07-23T07:29:48;12.18;;;9.65;;
11496;SDS011;5805;51.542;7.230;2022-07-23T07:32:14;12.52;;;9.10;;
11496;SDS011;5805;51.542;7.230;2022-07-23T07:34:39;9.82;;;7.70;;
11496;SDS011;5805;51.542;7.230;2022-07-23T07:37:05;10.23;;;7.20;;
11496;SDS011;5805;51.542;7.230;2022-07-23T07:39:32;9.38;;;7.25;;
11496;SDS011;5805;51.542;7.230;2022-07-23T07:41:58;12.38;;;7.38;;
11496;SDS011;5805;51.542;7.230;2022-07-23T07:44:24;10.10;;;7.75;;
11496;SDS011;5805;51.542;7.230;2022-07-23T07:46:50;8.07;;;6.38;;
11496;SDS011;5805;51.542;7.230;2022-07-23T07:49:15;7.70;;;6.47;;
11496;SDS011;5805;51.542;7.230;2022-07-23T07:51:41;11.43;;;6.32;;
11496;SDS011;5805;51.542;7.230;2022-07-23T07:54:07;10.02;;;5.93;;
11496;SDS011;5805;51.542;7.230;2022-07-23T07:56:34;9.18;;;4.90;;
11496;SDS011;5805;51.542;7.230;2022-07-23T07:59:00;6.60;;;4.80;;
11496;SDS011;5805;51.542;7.230;2022-07-23T08:01:25;5.60;;;4.25;;
11496;SDS011;5805;51.542;7.230;2022-07-23T08:03:51;5.68;;;4.40;;
11496;SDS011;5805;51.542;7.230;2022-07-23T08:06:17;5.03;;;4.18;;
11496;SDS011;5805;51.542;7.230;2022-07-23T08:08:42;5.55;;;4.00;;
11496;SDS011;5805;51.542;7.230;2022-07-23T08:11:08;5.15;;;4.07;;
11496;SDS011;5805;51.542;7.230;2022-07-23T08:13:35;4.50;;;3.60;;
11496;SDS011;5805;51.542;7.230;2022-07-23T08:16:01;3.28;;;2.97;;
11496;SDS011;5805;51.542;7.230;2022-07-23T08:18:27;5.28;;;3.83;;
11496;SDS011;5805;51.542;7.230;2022-07-23T08:20:53;3.60;;;3.00;;
11496;SDS011;5805;51.542;7.230;2022-07-23T08:23:18;5.35;;;2.53;;
11496;SDS011;5805;51.542;7.230;2022-07-23T08:25:44;5.82;;;3.28;;
11496;SDS011;5805;51.542;7.230;2022-07-23T08:28:11;5.50;;;2.75;;
11496;SDS011;5805;51.542;7.230;2022-07-23T08:30:39;4.10;;;3.25;;
11496;SDS011;5805;51.542;7.230;2022-07-23T08:33:07;3.22;;;2.80;;
11496;SDS011;5805;51.542;7.230;2022-07-23T08:35:34;5.20;;;2.63;;
11496;SDS011;5805;51.542;7.230;2022-07-23T08:38:02;3.53;;;2.55;;
11496;SDS011;5805;51.542;7.230;2022-07-23T08:40:29;2.97;;;2.60;;
11496;SDS011;5805;51.542;7.230;2022-07-23T08:42:56;3.05;;;2.70;;
11496;SDS011;5805;51.542;7.230;2022-07-23T08:45:22;6.15;;;3.58;;
11496;SDS011;5805;51.542;7.230;2022-07-23T08:47:52;4.57;;;3.20;;
11496;SDS011;5805;51.542;7.230;2022-07-23T08:50:19;3.35;;;2.83;;
11496;SDS011;5805;51.542;7.230;2022-07-23T08:52:46;5.22;;;3.10;;
11496;SDS011;5805;51.542;7.230;2022-07-23T08:55:12;4.15;;;3.03;;
11496;SDS011;5805;51.542;7.230;2022-07-23T08:57:40;3.63;;;3.00;;
11496;SDS011;5805;51.542;7.230;2022-07-23T09:00:06;3.85;;;3.42;;
11496;SDS011;5805;51.542;7.230;2022-07-23T09:02:38;3.80;;;3.30;;
11496;SDS011;5805;51.542;7.230;2022-07-23T09:05:06;4.43;;;3.58;;
11496;SDS011;5805;51.542;7.230;2022-07-23T09:07:32;3.30;;;2.97;;
11496;SDS011;5805;51.542;7.230;2022-07-23T09:10:04;5.30;;;3.22;;
11496;SDS011;5805;51.542;7.230;2022-07-23T09:12:31;4.25;;;3.03;;
11496;SDS011;5805;51.542;7.230;2022-07-23T09:14:57;2.92;;;2.70;;
11496;SDS011;5805;51.542;7.230;2022-07-23T09:17:29;4.57;;;2.88;;
11496;SDS011;5805;51.542;7.230;2022-07-23T09:20:08;3.70;;;2.60;;
11496;SDS011;5805;51.542;7.230;2022-07-23T09:22:35;3.55;;;2.95;;
11496;SDS011;5805;51.542;7.230;2022-07-23T09:25:09;3.97;;;2.90;;
11496;SDS011;5805;51.542;7.230;2022-07-23T09:27:46;4.70;;;2.83;;
11496;SDS011;5805;51.542;7.230;2022-07-23T09:30:14;3.38;;;2.83;;
11496;SDS011;5805;51.542;7.230;2022-07-23T09:32:40;3.58;;;2.53;;
11496;SDS011;5805;51.542;7.230;2022-07-23T09:35:07;2.75;;;2.55;;
11496;SDS011;5805;51.542;7.230;2022-07-23T09:37:33;4.97;;;2.15;;
11496;SDS011;5805;51.542;7.230;2022-07-23T09:40:03;3.30;;;2.50;;
11496;SDS011;5805;51.542;7.230;2022-07-23T09:42:29;5.20;;;2.42;;
11496;SDS011;5805;51.542;7.230;2022-07-23T09:44:55;3.17;;;2.70;;
11496;SDS011;5805;51.542;7.230;2022-07-23T09:47:22;3.55;;;2.35;;
11496;SDS011;5805;51.542;7.230;2022-07-23T09:49:58;4.78;;;2.55;;
11496;SDS011;5805;51.542;7.230;2022-07-23T09:52:27;6.88;;;2.72;;
11496;SDS011;5805;51.542;7.230;2022-07-23T09:54:57;2.65;;;2.42;;
11496;SDS011;5805;51.542;7.230;2022-07-23T09:57:23;6.70;;;3.50;;
11496;SDS011;5805;51.542;7.230;2022-07-23T09:59:49;4.45;;;2.40;;
11496;SDS011;5805;51.542;7.230;2022-07-23T10:02:15;6.18;;;2.67;;
11496;SDS011;5805;51.542;7.230;2022-07-23T10:04:42;3.63;;;2.40;;
11496;SDS011;5805;51.542;7.230;2022-07-23T10:07:08;4.35;;;2.72;;
11496;SDS011;5805;51.542;7.230;2022-07-23T10:09:36;3.42;;;3.08;;
11496;SDS011;5805;51.542;7.230;2022-07-23T10:12:04;4.25;;;2.60;;
11496;SDS011;5805;51.542;7.230;2022-07-23T10:14:33;3.15;;;2.25;;
11496;SDS011;5805;51.542;7.230;2022-07-23T10:17:00;5.43;;;2.75;;
11496;SDS011;5805;51.542;7.230;2022-07-23T10:19:26;5.95;;;2.50;;
11496;SDS011;5805;51.542;7.230;2022-07-23T10:21:52;3.70;;;2.33;;
11496;SDS011;5805;51.542;7.230;2022-07-23T10:24:25;2.80;;;1.90;;
11496;SDS011;5805;51.542;7.230;2022-07-23T10:27:05;2.88;;;2.30;;
11496;SDS011;5805;51.542;7.230;2022-07-23T10:29:45;3.42;;;2.03;;
11496;SDS011;5805;51.542;7.230;2022-07-23T10:32:17;3.97;;;2.42;;
11496;SDS011;5805;51.542;7.230;2022-07-23T10:34:52;3.83;;;2.78;;
11496;SDS011;5805;51.542;7.230;2022-07-23T10:37:25;2.67;;;2.05;;
11496;SDS011;5805;51.542;7.230;2022-07-23T10:40:08;9.32;;;5.65;;
11496;SDS011;5805;51.542;7.230;2022-07-23T10:42:37;6.90;;;2.63;;
11496;SDS011;5805;51.542;7.230;2022-07-23T10:47:48;4.53;;;2.53;;
11496;SDS011;5805;51.542;7.230;2022-07-23T10:50:18;4.22;;;2.15;;
11496;SDS011;5805;51.542;7.230;2022-07-23T10:55:40;4.50;;;2.20;;
11496;SDS011;5805;51.542;7.230;2022-07-23T10:58:12;4.75;;;2.22;;
11496;SDS011;5805;51.542;7.230;2022-07-23T11:00:43;2.70;;;2.13;;
11496;SDS011;5805;51.542;7.230;2022-07-23T11:05:53;4.57;;;2.20;;
11496;SDS011;5805;51.542;7.230;2022-07-23T11:08:19;3.13;;;2.05;;
11496;SDS011;5805;51.542;7.230;2022-07-23T11:10:46;2.47;;;1.77;;
11496;SDS011;5805;51.542;7.230;2022-07-23T11:13:28;3.20;;;1.90;;
11496;SDS011;5805;51.542;7.230;2022-07-23T11:16:04;5.28;;;2.17;;
11496;SDS011;5805;51.542;7.230;2022-07-23T11:24:25;4.22;;;2.08;;
11496;SDS011;5805;51.542;7.230;2022-07-23T11:27:01;2.22;;;1.73;;
11496;SDS011;5805;51.542;7.230;2022-07-23T11:29:39;3.08;;;2.10;;
11496;SDS011;5805;51.542;7.230;2022-07-23T11:35:23;2.03;;;1.70;;
11496;SDS011;5805;51.542;7.230;2022-07-23T11:37:51;3.10;;;1.60;;
11496;SDS011;5805;51.542;7.230;2022-07-23T11:40:18;2.50;;;1.80;;
11496;SDS011;5805;51.542;7.230;2022-07-23T11:42:54;4.85;;;2.10;;
11496;SDS011;5805;51.542;7.230;2022-07-23T11:45:22;1.88;;;1.50;;
11496;SDS011;5805;51.542;7.230;2022-07-23T11:47:49;2.38;;;1.55;;
11496;SDS011;5805;51.542;7.230;2022-07-23T11:50:14;2.03;;;1.30;;
11496;SDS011;5805;51.542;7.230;2022-07-23T11:52:40;4.55;;;1.73;;
11496;SDS011;5805;51.542;7.230;2022-07-23T11:55:07;2.13;;;1.88;;
11496;SDS011;5805;51.542;7.230;2022-07-23T11:57:35;3.80;;;2.38;;
11496;SDS011;5805;51.542;7.230;2022-07-23T12:00:04;2.15;;;1.63;;
11496;SDS011;5805;51.542;7.230;2022-07-23T12:02:32;1.63;;;1.52;;
11496;SDS011;5805;51.542;7.230;2022-07-23T12:04:58;1.75;;;1.63;;
11496;SDS011;5805;51.542;7.230;2022-07-23T12:07:28;2.15;;;1.60;;
11496;SDS011;5805;51.542;7.230;2022-07-23T12:09:56;3.20;;;1.85;;
11496;SDS011;5805;51.542;7.230;2022-07-23T12:12:22;4.35;;;1.52;;
11496;SDS011;5805;51.542;7.230;2022-07-23T12:14:49;2.60;;;1.80;;
11496;SDS011;5805;51.542;7.230;2022-07-23T12:17:16;4.30;;;1.80;;
11496;SDS011;5805;51.542;7.230;2022-07-23T12:19:43;4.00;;;1.60;;
11496;SDS011;5805;51.542;7.230;2022-07-23T12:22:09;1.77;;;1.42;;
11496;SDS011;5805;51.542;7.230;2022-07-23T12:27:23;2.15;;;1.50;;
11496;SDS011;5805;51.542;7.230;2022-07-23T12:29:49;1.98;;;1.83;;
11496;SDS011;5805;51.542;7.230;2022-07-23T12:32:18;1.90;;;1.70;;
11496;SDS011;5805;51.542;7.230;2022-07-23T12:34:47;1.73;;;1.60;;
11496;SDS011;5805;51.542;7.230;2022-07-23T12:37:27;2.15;;;1.60;;
11496;SDS011;5805;51.542;7.230;2022-07-23T12:39:54;2.60;;;1.40;;
11496;SDS011;5805;51.542;7.230;2022-07-23T12:42:19;2.30;;;1.65;;
11496;SDS011;5805;51.542;7.230;2022-07-23T12:47:30;1.95;;;1.67;;
11496;SDS011;5805;51.542;7.230;2022-07-23T12:53:01;2.47;;;1.65;;
11496;SDS011;5805;51.542;7.230;2022-07-23T12:55:29;2.00;;;1.60;;
11496;SDS011;5805;51.542;7.230;2022-07-23T12:58:02;1.67;;;1.55;;
11496;SDS011;5805;51.542;7.230;2022-07-23T13:00:29;2.88;;;1.52;;
11496;SDS011;5805;51.542;7.230;2022-07-23T13:02:54;2.40;;;1.70;;
11496;SDS011;5805;51.542;7.230;2022-07-23T13:05:20;4.07;;;1.67;;
11496;SDS011;5805;51.542;7.230;2022-07-23T13:07:47;2.30;;;1.70;;
11496;SDS011;5805;51.542;7.230;2022-07-23T13:10:13;2.90;;;1.40;;
11496;SDS011;5805;51.542;7.230;2022-07-23T13:12:39;5.28;;;1.70;;
11496;SDS011;5805;51.542;7.230;2022-07-23T13:15:05;2.03;;;1.60;;
11496;SDS011;5805;51.542;7.230;2022-07-23T13:17:31;3.72;;;1.60;;
11496;SDS011;5805;51.542;7.230;2022-07-23T13:19:57;2.03;;;1.50;;
11496;SDS011;5805;51.542;7.230;2022-07-23T13:22:22;3.05;;;1.70;;
11496;SDS011;5805;51.542;7.230;2022-07-23T13:24:49;2.92;;;1.50;;
11496;SDS011;5805;51.542;7.230;2022-07-23T13:27:15;3.22;;;1.58;;
11496;SDS011;5805;51.542;7.230;2022-07-23T13:29:41;2.78;;;1.63;;
11496;SDS011;5805;51.542;7.230;2022-07-23T13:32:06;2.53;;;1.80;;
11496;SDS011;5805;51.542;7.230;2022-07-23T13:34:32;3.83;;;1.70;;
11496;SDS011;5805;51.542;7.230;2022-07-23T13:36:58;2.83;;;1.45;;
11496;SDS011;5805;51.542;7.230;2022-07-23T13:39:23;1.85;;;1.25;;
11496;SDS011;5805;51.542;7.230;2022-07-23T13:41:51;2.63;;;1.73;;
11496;SDS011;5805;51.542;7.230;2022-07-23T13:44:16;3.47;;;1.70;;
11496;SDS011;5805;51.542;7.230;2022-07-23T13:46:42;3.75;;;1.73;;
11496;SDS011;5805;51.542;7.230;2022-07-23T13:49:08;3.38;;;1.55;;
11496;SDS011;5805;51.542;7.230;2022-07-23T13:51:33;3.63;;;1.60;;
11496;SDS011;5805;51.542;7.230;2022-07-23T13:53:59;2.15;;;1.55;;
11496;SDS011;5805;51.542;7.230;2022-07-23T13:56:25;3.60;;;1.50;;
11496;SDS011;5805;51.542;7.230;2022-07-23T13:58:52;3.58;;;1.60;;
11496;SDS011;5805;51.542;7.230;2022-07-23T14:01:18;3.35;;;1.40;;
11496;SDS011;5805;51.542;7.230;2022-07-23T14:03:43;1.75;;;1.60;;
11496;SDS011;5805;51.542;7.230;2022-07-23T14:06:09;2.25;;;1.77;;
11496;SDS011;5805;51.542;7.230;2022-07-23T14:08:35;2.88;;;1.70;;
11496;SDS011;5805;51.542;7.230;2022-07-23T14:11:00;2.10;;;1.70;;
11496;SDS011;5805;51.542;7.230;2022-07-23T14:13:26;2.55;;;1.70;;
11496;SDS011;5805;51.542;7.230;2022-07-23T14:15:53;3.92;;;1.95;;
11496;SDS011;5805;51.542;7.230;2022-07-23T14:18:19;2.08;;;1.70;;
11496;SDS011;5805;51.542;7.230;2022-07-23T14:20:44;2.55;;;1.70;;
11496;SDS011;5805;51.542;7.230;2022-07-23T14:23:10;3.03;;;1.85;;
11496;SDS011;5805;51.542;7.230;2022-07-23T14:25:36;1.90;;;1.70;;
11496;SDS011;5805;51.542;7.230;2022-07-23T14:28:01;6.63;;;1.50;;
11496;SDS011;5805;51.542;7.230;2022-07-23T14:30:27;2.58;;;1.88;;
11496;SDS011;5805;51.542;7.230;2022-07-23T14:32:54;4.45;;;1.50;;
11496;SDS011;5805;51.542;7.230;2022-07-23T14:35:20;2.97;;;1.50;;
11496;SDS011;5805;51.542;7.230;2022-07-23T14:37:46;1.63;;;1.52;;
11496;SDS011;5805;51.542;7.230;2022-07-23T14:40:12;5.07;;;1.92;;
11496;SDS011;5805;51.542;7.230;2022-07-23T14:42:37;1.95;;;1.75;;
11496;SDS011;5805;51.542;7.230;2022-07-23T14:45:03;2.30;;;2.08;;
11496;SDS011;5805;51.542;7.230;2022-07-23T14:47:30;3.05;;;1.90;;
11496;SDS011;5805;51.542;7.230;2022-07-23T14:49:57;2.63;;;1.88;;
11496;SDS011;5805;51.542;7.230;2022-07-23T14:52:23;2.85;;;1.65;;
11496;SDS011;5805;51.542;7.230;2022-07-23T14:54:48;2.20;;;1.67;;
11496;SDS011;5805;51.542;7.230;2022-07-23T14:57:14;3.58;;;1.98;;
11496;SDS011;5805;51.542;7.230;2022-07-23T14:59:40;1.98;;;1.75;;
11496;SDS011;5805;51.542;7.230;2022-07-23T15:02:05;2.67;;;1.85;;
11496;SDS011;5805;51.542;7.230;2022-07-23T15:04:31;3.85;;;1.90;;
11496;SDS011;5805;51.542;7.230;2022-07-23T15:06:58;2.97;;;1.90;;
11496;SDS011;5805;51.542;7.230;2022-07-23T15:09:24;2.42;;;1.98;;
11496;SDS011;5805;51.542;7.230;2022-07-23T15:11:49;3.78;;;1.95;;
11496;SDS011;5805;51.542;7.230;2022-07-23T15:14:15;1.70;;;1.60;;
11496;SDS011;5805;51.542;7.230;2022-07-23T15:16:41;2.25;;;1.80;;
11496;SDS011;5805;51.542;7.230;2022-07-23T15:19:06;2.20;;;1.98;;
11496;SDS011;5805;51.542;7.230;2022-07-23T15:21:32;2.10;;;1.90;;